Time;durP1;ratioP1;P1;durP2;ratioP2;P2;SDS_P1;SDS_P2;PMS_P1;PMS_P2;Temp;Humidity;BMP_temperature;BMP_pressure;BME280_temperature;BME280_humidity;BME280_pressure;Samples;Min_cycle;Max_cycle;Signal;HPM_P1;HPM_P2
2023/07/25 00:01:40;;;;;;;;;;;;;;;25.58;41.19;99544.20;2362134;74;50344;-77
2023/07/25 00:04:41;;;;;;;;;;;;;;;25.58;41.18;99538.78;2362165;74;50562;-75
2023/07/25 00:07:43;;;;;;;;;;;;;;;25.57;41.20;99542.58;2388911;74;51787;-75
2023/07/25 00:10:44;;;;;;;;;;;;;;;25.57;41.20;99548.80;2362253;74;50789;-75
2023/07/25 00:13:46;;;;;;;;;;;;;;;25.57;41.21;99548.80;2395357;74;51600;-76
2023/07/25 00:16:48;;;;;;;;;;;;;;;25.57;41.20;99551.52;2388630;73;51327;-75
2023/07/25 00:19:49;;;;;;;;;;;;;;;25.56;41.20;99536.34;2389589;74;51017;-76
2023/07/25 00:22:51;;;;;;;;;;;;;;;25.55;41.22;99541.47;2395570;73;50447;-76
2023/07/25 00:25:52;;;;;;;;;;;;;;;25.56;41.23;99546.34;2362240;74;50522;-74
2023/07/25 00:28:54;;;;;;;;;;;;;;;25.56;41.20;99540.92;2395297;74;50416;-77
2023/07/25 00:31:55;;;;;;;;;;;;;;;25.57;41.18;99550.70;2389377;74;50063;-75
2023/07/25 00:34:57;;;;;;;;;;;;;;;25.56;41.17;99551.76;2362018;74;50748;-75
2023/07/25 00:37:59;;;;;;;;;;;;;;;25.57;41.17;99560.19;2395266;74;51545;-76
2023/07/25 00:41:00;;;;;;;;;;;;;;;25.55;41.17;99552.30;2395438;74;51431;-76
2023/07/25 00:44:02;;;;;;;;;;;;;;;25.56;41.15;99558.53;2332417;74;51681;-75
2023/07/25 00:47:03;;;;;;;;;;;;;;;25.56;41.17;99558.53;2358119;74;50460;-76
2023/07/25 00:50:05;;;;;;;;;;;;;;;25.55;41.14;99552.30;2395469;73;50721;-76
2023/07/25 00:53:09;;;;;;;;;;;;;;;25.55;41.16;99556.36;2395586;74;50491;-76
2023/07/25 00:56:10;;;;;;;;;;;;;;;25.54;41.17;99564.77;2362709;74;22738;-73
2023/07/25 00:59:12;;;;;;;;;;;;;;;25.55;41.15;99562.33;2397970;74;50755;-76
2023/07/25 01:02:14;;;;;;;;;;;;;;;25.55;41.14;99571.27;2397973;73;51550;-75
2023/07/25 01:05:15;;;;;;;;;;;;;;;25.55;41.15;99571.80;2397829;73;50469;-75
2023/07/25 01:08:17;;;;;;;;;;;;;;;25.54;41.16;99570.18;2391922;74;50082;-76
2023/07/25 01:11:19;;;;;;;;;;;;;;;25.54;41.16;99567.47;2397774;73;50657;-75
2023/07/25 01:14:20;;;;;;;;;;;;;;;25.53;41.16;99572.59;2397900;73;50768;-75
2023/07/25 01:17:22;;;;;;;;;;;;;;;25.54;41.17;99567.47;2362873;74;50630;-76
2023/07/25 01:20:24;;;;;;;;;;;;;;;25.52;41.18;99571.78;2389648;74;49676;-76
2023/07/25 01:23:26;;;;;;;;;;;;;;;25.53;41.15;99578.01;2395628;74;51505;-76
2023/07/25 01:26:27;;;;;;;;;;;;;;;25.53;41.13;99578.01;2395143;74;51454;-75
2023/07/25 01:29:29;;;;;;;;;;;;;;;25.52;41.14;99573.67;2395625;74;51452;-75
2023/07/25 01:32:31;;;;;;;;;;;;;;;25.52;41.13;99583.16;2335331;74;51221;-76
2023/07/25 01:35:32;;;;;;;;;;;;;;;25.52;41.13;99579.91;2362167;74;51494;-75
2023/07/25 01:38:34;;;;;;;;;;;;;;;25.52;41.13;99583.97;2395252;74;50744;-75
2023/07/25 01:41:35;;;;;;;;;;;;;;;25.52;41.08;99581.80;2362218;74;50686;-77
2023/07/25 01:44:37;;;;;;;;;;;;;;;25.52;41.11;99581.80;2395939;74;51457;-75
2023/07/25 01:47:39;;;;;;;;;;;;;;;25.52;41.07;99588.57;2362581;74;51379;-75
2023/07/25 01:50:40;;;;;;;;;;;;;;;25.51;41.12;99590.47;2362220;74;51543;-77
2023/07/25 01:53:42;;;;;;;;;;;;;;;25.51;41.08;99588.27;2362148;74;51475;-76
2023/07/25 01:56:43;;;;;;;;;;;;;;;25.51;41.08;99590.47;2334865;74;52265;-75
2023/07/25 01:59:45;;;;;;;;;;;;;;;25.51;41.08;99585.56;2362198;74;49741;-75
2023/07/25 02:02:46;;;;;;;;;;;;;;;25.50;41.07;99585.30;2362283;74;51436;-76
2023/07/25 02:05:48;;;;;;;;;;;;;;;25.50;41.12;99592.06;2395179;74;51384;-75
2023/07/25 02:08:50;;;;;;;;;;;;;;;25.50;41.10;99598.84;2395210;74;51591;-75
2023/07/25 02:11:51;;;;;;;;;;;;;;;25.50;41.08;99594.77;2362036;74;51347;-76
2023/07/25 02:14:53;;;;;;;;;;;;;;;25.50;41.10;99593.42;2381119;74;51359;-75
2023/07/25 02:17:54;;;;;;;;;;;;;;;25.49;41.08;99612.92;2387064;73;50338;-75
2023/07/25 02:20:56;;;;;;;;;;;;;;;25.50;41.07;99602.90;2391904;73;51195;-76
2023/07/25 02:23:58;;;;;;;;;;;;;;;25.48;41.09;99609.09;2397947;74;50367;-76
2023/07/25 02:26:59;;;;;;;;;;;;;;;25.48;41.09;99604.50;2362611;74;50680;-75
2023/07/25 02:30:01;;;;;;;;;;;;;;;25.48;41.09;99619.94;2397808;73;50486;-74
2023/07/25 02:33:02;;;;;;;;;;;;;;;25.47;41.07;99627.25;2362865;73;51445;-75
2023/07/25 02:36:04;;;;;;;;;;;;;;;25.48;41.08;99625.35;2362810;74;50446;-75
2023/07/25 02:39:06;;;;;;;;;;;;;;;25.49;41.07;99635.13;2362636;73;50689;-74
2023/07/25 02:42:07;;;;;;;;;;;;;;;25.47;41.05;99635.37;2397702;74;50249;-75
2023/07/25 02:45:09;;;;;;;;;;;;;;;25.47;41.08;99631.85;2328849;74;51719;-75
2023/07/25 02:48:10;;;;;;;;;;;;;;;25.47;41.05;99631.85;2362531;74;50119;-76
2023/07/25 02:51:13;;;;;;;;;;;;;;;25.47;41.07;99637.27;2361880;74;50213;-76
2023/07/25 02:54:14;;;;;;;;;;;;;;;25.47;41.09;99630.50;2395316;74;50794;-76
2023/07/25 02:57:16;;;;;;;;;;;;;;;25.46;41.11;99633.75;2334633;74;52480;-76
2023/07/25 03:00:18;;;;;;;;;;;;;;;25.47;41.08;99631.31;2362101;74;53844;-76
2023/07/25 03:03:19;;;;;;;;;;;;;;;25.46;41.09;99636.97;2362222;74;50770;-76
2023/07/25 03:06:21;;;;;;;;;;;;;;;25.44;41.10;99637.23;2361963;74;50484;-76
2023/07/25 03:09:22;;;;;;;;;;;;;;;25.46;41.09;99642.38;2362306;74;51635;-76
2023/07/25 03:12:24;;;;;;;;;;;;;;;25.44;41.12;99639.14;2395392;74;50762;-76
2023/07/25 03:15:26;;;;;;;;;;;;;;;25.45;41.10;99650.24;2351038;74;50328;-76
2023/07/25 03:18:27;;;;;;;;;;;;;;;25.44;41.10;99654.03;2395976;73;50090;-75
2023/07/25 03:21:29;;;;;;;;;;;;;;;25.44;41.08;99658.91;2389599;73;50985;-76
2023/07/25 03:24:31;;;;;;;;;;;;;;;25.44;41.09;99657.55;2395486;74;50640;-75
2023/07/25 03:27:32;;;;;;;;;;;;;;;25.43;41.09;99659.95;2395169;74;50711;-76
2023/07/25 03:30:34;;;;;;;;;;;;;;;25.42;41.09;99654.27;2395571;74;50652;-76
2023/07/25 03:33:35;;;;;;;;;;;;;;;25.42;41.11;99661.05;2362325;74;52328;-77
2023/07/25 03:36:37;;;;;;;;;;;;;;;25.43;41.09;99661.31;2361984;74;51397;-76
2023/07/25 03:39:38;;;;;;;;;;;;;;;25.42;41.12;99656.44;2395368;74;51427;-75
2023/07/25 03:42:40;;;;;;;;;;;;;;;25.44;41.08;99659.45;2362302;74;50699;-76
2023/07/25 03:45:42;;;;;;;;;;;;;;;25.42;41.05;99659.69;2377432;74;49490;-77
2023/07/25 03:48:43;;;;;;;;;;;;;;;25.43;41.09;99662.67;2362687;74;50329;-76
2023/07/25 03:51:45;;;;;;;;;;;;;;;25.41;41.05;99662.94;2395488;73;50167;-76
2023/07/25 03:54:46;;;;;;;;;;;;;;;25.40;41.09;99666.70;2395520;74;50764;-74
2023/07/25 03:57:48;;;;;;;;;;;;;;;25.40;41.08;99651.80;2335196;74;52590;-75
2023/07/25 04:00:49;;;;;;;;;;;;;;;25.41;41.09;99652.11;2395812;73;51608;-75
2023/07/25 04:03:51;;;;;;;;;;;;;;;25.40;41.08;99653.16;2395375;74;51435;-75
2023/07/25 04:06:53;;;;;;;;;;;;;;;25.41;41.05;99658.87;2394952;74;51469;-76
2023/07/25 04:09:54;;;;;;;;;;;;;;;25.40;41.05;99663.18;2389234;74;52322;-75
2023/07/25 04:12:56;;;;;;;;;;;;;;;25.40;41.06;99659.11;2361765;74;50312;-76
2023/07/25 04:15:57;;;;;;;;;;;;;;;25.40;41.05;99665.34;2362453;74;50559;-76
2023/07/25 04:18:59;;;;;;;;;;;;;;;25.40;41.05;99654.52;2395103;74;51547;-76
2023/07/25 04:22:01;;;;;;;;;;;;;;;25.40;41.05;99651.80;2390281;74;52994;-75
2023/07/25 04:25:02;;;;;;;;;;;;;;;25.39;41.07;99659.66;2396244;74;51344;-76
2023/07/25 04:28:04;;;;;;;;;;;;;;;25.40;41.06;99661.28;2361828;74;51456;-75
2023/07/25 04:31:06;;;;;;;;;;;;;;;25.41;41.05;99665.64;2395570;73;50758;-75
2023/07/25 04:34:07;;;;;;;;;;;;;;;25.41;41.05;99668.89;2362555;74;50605;-76
2023/07/25 04:37:09;;;;;;;;;;;;;;;25.41;41.04;99676.48;2362245;74;51493;-76
2023/07/25 04:40:11;;;;;;;;;;;;;;;25.40;41.04;99668.05;2362548;74;50768;-75
2023/07/25 04:43:12;;;;;;;;;;;;;;;25.41;41.05;99673.77;2395889;74;50753;-75
2023/07/25 04:46:14;;;;;;;;;;;;;;;25.40;41.09;99668.05;2395797;74;51550;-75
2023/07/25 04:49:16;;;;;;;;;;;;;;;25.39;41.06;99669.14;2362415;74;51592;-73
2023/07/25 04:52:18;;;;;;;;;;;;;;;25.39;41.08;99677.27;2362563;74;50016;-75
2023/07/25 04:55:19;;;;;;;;;;;;;;;25.40;41.06;99683.48;2362205;74;50501;-75
2023/07/25 04:58:21;;;;;;;;;;;;;;;25.39;41.07;99678.62;2334973;74;51653;-75
2023/07/25 05:01:23;;;;;;;;;;;;;;;25.40;41.05;99682.14;2362239;74;50717;-75
2023/07/25 05:04:24;;;;;;;;;;;;;;;25.40;41.05;99683.48;2395613;74;51481;-74
2023/07/25 05:07:26;;;;;;;;;;;;;;;25.39;41.08;99677.27;2361970;74;50614;-76
2023/07/25 05:10:27;;;;;;;;;;;;;;;25.38;41.07;99668.02;2362671;74;51377;-74
2023/07/25 05:13:29;;;;;;;;;;;;;;;25.39;41.08;99666.97;2390099;74;52000;-77
2023/07/25 05:16:30;;;;;;;;;;;;;;;25.38;41.08;99653.13;2335742;74;51643;-75
2023/07/25 05:19:32;;;;;;;;;;;;;;;25.37;41.12;99660.44;2395470;74;51449;-75
2023/07/25 05:22:34;;;;;;;;;;;;;;;25.38;41.10;99662.09;2395643;74;50814;-74
2023/07/25 05:25:35;;;;;;;;;;;;;;;25.38;41.09;99648.55;2335284;74;51542;-75
2023/07/25 05:28:37;;;;;;;;;;;;;;;25.38;41.07;99646.36;2395052;73;51484;-75
2023/07/25 05:31:38;;;;;;;;;;;;;;;25.38;41.08;99629.59;2395352;74;51447;-74
2023/07/25 05:34:40;;;;;;;;;;;;;;;25.38;41.08;99633.66;2362141;74;51940;-75
2023/07/25 05:37:42;;;;;;;;;;;;;;;25.39;41.07;99635.28;2389309;74;51232;-75
2023/07/25 05:40:43;;;;;;;;;;;;;;;25.42;41.05;99646.96;2362142;74;50359;-74
2023/07/25 05:43:45;;;;;;;;;;;;;;;25.43;41.03;99666.73;2395332;74;50113;-75
2023/07/25 05:46:46;;;;;;;;;;;;;;;25.43;41.09;99672.14;2394130;74;50514;-76
2023/07/25 05:49:48;;;;;;;;;;;;;;;25.43;41.07;99674.86;2390112;74;52322;-75
2023/07/25 05:52:49;;;;;;;;;;;;;;;25.45;41.05;99678.14;2395507;74;51535;-76
2023/07/25 05:55:51;;;;;;;;;;;;;;;25.47;40.99;99679.25;2395574;74;50516;-75
2023/07/25 05:58:53;;;;;;;;;;;;;;;25.49;40.94;99702.84;2395140;73;51478;-74
2023/07/25 06:01:54;;;;;;;;;;;;;;;25.45;41.04;99717.95;2389433;73;51162;-74
2023/07/25 06:04:56;;;;;;;;;;;;;;;25.44;41.02;99739.34;2395317;74;50654;-75
2023/07/25 06:07:57;;;;;;;;;;;;;;;25.45;41.09;99758.58;2395182;73;50449;-75
2023/07/25 06:10:59;;;;;;;;;;;;;;;25.44;41.09;99763.72;2395297;74;51447;-75
2023/07/25 06:14:00;;;;;;;;;;;;;;;25.44;41.11;99759.12;2386929;74;51692;-75
2023/07/25 06:17:02;;;;;;;;;;;;;;;25.45;41.11;99755.87;2384042;73;51432;-76
2023/07/25 06:20:04;;;;;;;;;;;;;;;25.45;41.11;99763.99;2360694;74;51503;-75
2023/07/25 06:23:05;;;;;;;;;;;;;;;25.45;41.13;99767.52;2362092;74;49944;-75
2023/07/25 06:26:07;;;;;;;;;;;;;;;25.44;41.13;99748.28;2389516;73;50085;-73
2023/07/25 06:29:09;;;;;;;;;;;;;;;25.44;41.15;99754.23;2395096;74;51546;-75
2023/07/25 06:32:10;;;;;;;;;;;;;;;25.44;41.14;99756.41;2395393;74;50911;-74
2023/07/25 06:35:12;;;;;;;;;;;;;;;25.42;41.16;99753.12;2395450;74;50735;-76
2023/07/25 06:38:13;;;;;;;;;;;;;;;25.41;41.17;99756.38;2389171;74;50102;-76
2023/07/25 06:41:15;;;;;;;;;;;;;;;25.42;41.16;99762.60;2362195;74;51522;-74
2023/07/25 06:44:19;;;;;;;;;;;;;;;25.44;41.16;99765.08;2395654;73;50647;-75
2023/07/25 06:47:20;;;;;;;;;;;;;;;25.56;40.97;99758.98;2396976;74;22848;-75
2023/07/25 06:50:21;;;;;;;;;;;;;;;25.68;41.02;99756.98;2335318;74;50966;-76
2023/07/25 06:53:23;;;;;;;;;;;;;;;25.81;40.98;99762.02;2335086;73;51196;-75
2023/07/25 06:56:25;;;;;;;;;;;;;;;25.88;40.98;99760.51;2361921;74;52507;-76
2023/07/25 06:59:29;;;;;;;;;;;;;;;25.90;41.00;99758.91;2395343;74;49791;-75
2023/07/25 07:02:29;;;;;;;;;;;;;;;25.90;41.05;99744.81;2362526;74;21744;-75
2023/07/25 07:05:32;;;;;;;;;;;;;;;25.89;41.12;99749.13;2362041;74;51486;-74
2023/07/25 07:08:33;;;;;;;;;;;;;;;25.78;41.33;99740.03;2395537;74;50790;-76
2023/07/25 07:11:35;;;;;;;;;;;;;;;25.77;41.22;99748.70;2395614;74;50574;-76
2023/07/25 07:14:36;;;;;;;;;;;;;;;25.78;41.24;99731.36;2383353;74;52591;-76
2023/07/25 07:17:38;;;;;;;;;;;;;;;25.74;41.33;99732.95;2356897;74;51688;-75
2023/07/25 07:20:39;;;;;;;;;;;;;;;25.70;41.35;99729.10;2395602;74;51625;-76
2023/07/25 07:23:41;;;;;;;;;;;;;;;25.71;41.35;99723.14;2362604;74;51429;-76
2023/07/25 07:26:43;;;;;;;;;;;;;;;25.78;41.24;99721.88;2389242;74;51681;-75
2023/07/25 07:29:44;;;;;;;;;;;;;;;25.82;41.21;99725.73;2361945;74;51201;-76
2023/07/25 07:32:47;;;;;;;;;;;;;;;25.78;41.29;99720.52;2362061;74;51407;-76
2023/07/25 07:35:48;;;;;;;;;;;;;;;25.80;41.26;99727.86;2362990;74;50719;-76
2023/07/25 07:38:50;;;;;;;;;;;;;;;25.78;41.23;99723.77;2335424;74;51207;-77
2023/07/25 07:41:51;;;;;;;;;;;;;;;25.77;41.24;99716.19;2362733;74;50820;-75
2023/07/25 07:44:53;;;;;;;;;;;;;;;25.78;41.17;99721.88;2366689;74;50051;-76
2023/07/25 07:47:55;;;;;;;;;;;;;;;25.79;41.11;99722.17;2364281;74;50740;-75
2023/07/25 07:50:56;;;;;;;;;;;;;;;25.73;41.23;99725.88;2390684;74;51347;-74
2023/07/25 07:53:59;;;;;;;;;;;;;;;25.75;41.18;99726.45;2364649;74;50747;-76
2023/07/25 07:57:00;;;;;;;;;;;;;;;25.78;41.10;99728.65;2397189;74;50885;-75
2023/07/25 08:00:03;;;;;;;;;;;;;;;25.83;41.08;99730.06;2398494;74;50266;-76
2023/07/25 08:03:04;;;;;;;;;;;;;;;25.88;41.01;99721.20;2391452;74;51635;-75
2023/07/25 08:06:06;;;;;;;;;;;;;;;25.88;40.99;99710.37;2362953;74;50840;-75
2023/07/25 08:09:08;;;;;;;;;;;;;;;25.90;40.95;99709.58;2362540;74;51590;-76
2023/07/25 08:12:09;;;;;;;;;;;;;;;25.90;40.88;99704.16;2363835;74;51477;-77
2023/07/25 08:15:11;;;;;;;;;;;;;;;25.96;40.74;99703.13;2395426;73;51556;-74
2023/07/25 08:18:13;;;;;;;;;;;;;;;25.98;40.75;99706.95;2350272;75;50789;-75
2023/07/25 08:21:15;;;;;;;;;;;;;;;26.01;40.67;99702.38;2354643;74;50572;-75
2023/07/25 08:24:16;;;;;;;;;;;;;;;25.96;40.75;99706.39;2354279;75;50334;-75
2023/07/25 08:27:18;;;;;;;;;;;;;;;25.99;40.69;99693.67;2321236;75;52656;-75
2023/07/25 08:30:19;;;;;;;;;;;;;;;26.01;40.64;99695.05;2348555;74;50666;-75
2023/07/25 08:33:22;;;;;;;;;;;;;;;26.02;40.63;99686.38;2354353;74;49945;-75
2023/07/25 08:36:23;;;;;;;;;;;;;;;26.00;40.66;99696.68;2354044;74;51557;-76
2023/07/25 08:39:25;;;;;;;;;;;;;;;26.01;40.53;99705.08;2348775;74;51174;-77
2023/07/25 08:42:26;;;;;;;;;;;;;;;25.98;40.64;99714.55;2348970;74;51652;-76
2023/07/25 08:45:28;;;;;;;;;;;;;;;25.99;40.62;99718.06;2372949;74;50633;-75
2023/07/25 08:48:30;;;;;;;;;;;;;;;26.00;40.60;99733.27;2397154;73;50684;-75
2023/07/25 08:51:34;;;;;;;;;;;;;;;26.01;40.55;99718.09;2391840;73;51145;-75
2023/07/25 08:54:36;;;;;;;;;;;;;;;25.97;40.57;99726.98;2397994;73;51476;-75
2023/07/25 08:57:38;;;;;;;;;;;;;;;25.95;40.57;99718.31;2362902;74;50650;-76
2023/07/25 09:00:40;;;;;;;;;;;;;;;25.91;40.63;99703.08;2398200;73;50302;-75
2023/07/25 09:03:42;;;;;;;;;;;;;;;25.94;40.59;99701.75;2392264;73;51752;-74
2023/07/25 09:06:44;;;;;;;;;;;;;;;25.96;40.59;99713.16;2362628;74;50695;-74
2023/07/25 09:09:45;;;;;;;;;;;;;;;25.98;40.56;99705.59;2397902;73;51566;-76
2023/07/25 09:12:47;;;;;;;;;;;;;;;25.96;40.57;99715.33;2398383;73;51458;-74
2023/07/25 09:15:48;;;;;;;;;;;;;;;25.97;40.56;99709.36;2391293;73;51102;-74
2023/07/25 09:18:50;;;;;;;;;;;;;;;25.95;40.56;99715.06;2397199;73;50298;-76
2023/07/25 09:21:57;;;;;;;;;;;;;;;25.97;40.54;99709.36;2397677;73;50261;-76
2023/07/25 09:24:55;;;;;;;;;;;;;;;25.95;40.56;99716.41;2396535;73;21831;-76
2023/07/25 09:27:56;;;;;;;;;;;;;;;25.98;40.53;99723.22;2335723;73;50979;-75
2023/07/25 09:30:58;;;;;;;;;;;;;;;25.93;40.60;99720.45;2397608;74;50731;-76
2023/07/25 09:34:00;;;;;;;;;;;;;;;25.91;40.62;99737.50;2397527;73;50333;-76
2023/07/25 09:37:04;;;;;;;;;;;;;;;25.89;40.64;99751.30;2397278;73;50095;-77
2023/07/25 09:40:12;;;;;;;;;;;;;;;25.85;40.73;99753.70;2391629;73;51669;-75
2023/07/25 09:43:23;;;;;;;;;;;;;;;25.85;40.70;99752.34;2362666;74;50808;-74
2023/07/25 09:46:24;;;;;;;;;;;;;;;25.84;40.70;99760.20;2393758;73;51578;-75
2023/07/25 09:49:26;;;;;;;;;;;;;;;25.81;40.73;99754.42;2397895;73;50666;-75
2023/07/25 09:52:31;;;;;;;;;;;;;;;25.82;40.72;99743.34;2397517;73;50547;-75
2023/07/25 09:55:32;;;;;;;;;;;;;;;25.82;40.69;99739.82;2396582;74;50734;-76
2023/07/25 09:58:34;;;;;;;;;;;;;;;25.82;40.69;99732.50;2398085;73;50794;-75
2023/07/25 10:01:36;;;;;;;;;;;;;;;25.82;40.68;99735.22;2363533;74;50677;-76
2023/07/25 10:04:42;;;;;;;;;;;;;;;25.82;40.69;99733.05;2398308;73;50231;-75
2023/07/25 10:07:41;;;;;;;;;;;;;;;25.84;40.67;99733.11;2398257;73;23156;-75
2023/07/25 10:10:42;;;;;;;;;;;;;;;25.88;40.57;99736.66;2397911;74;50759;-75
2023/07/25 10:13:44;;;;;;;;;;;;;;;25.88;40.56;99742.08;2397798;74;50646;-77
2023/07/25 10:16:46;;;;;;;;;;;;;;;25.84;40.58;99733.11;2386489;74;52499;-75
2023/07/25 10:19:54;;;;;;;;;;;;;;;25.83;40.59;99725.19;2395271;74;50354;-75
2023/07/25 10:22:57;;;;;;;;;;;;;;;25.84;40.59;99729.52;2395615;74;50420;-77
2023/07/25 10:26:18;;;;;;;;;;;;;;;25.85;40.56;99734.73;2393573;74;50486;-75
2023/07/25 10:29:38;;;;;;;;;;;;;;;25.87;40.56;99739.06;2395368;74;51639;-75
2023/07/25 10:32:43;;;;;;;;;;;;;;;25.84;40.58;99740.36;2395444;74;50487;-75
2023/07/25 10:35:54;;;;;;;;;;;;;;;25.88;40.52;99740.72;2361969;74;51595;-74
2023/07/25 10:39:06;;;;;;;;;;;;;;;25.85;40.53;99738.80;2395230;74;51543;-76
2023/07/25 10:42:09;;;;;;;;;;;;;;;25.86;40.51;99732.83;2389654;73;51760;-76
2023/07/25 10:45:31;;;;;;;;;;;;;;;25.85;40.52;99737.98;2395516;74;50777;-76
2023/07/25 10:48:33;;;;;;;;;;;;;;;25.86;40.56;99735.55;2382631;74;50789;-77
2023/07/25 10:51:51;;;;;;;;;;;;;;;25.86;40.52;99739.61;2395392;74;50483;-75
2023/07/25 10:55:00;;;;;;;;;;;;;;;25.83;40.54;99736.84;2389543;74;51249;-76
2023/07/25 10:58:08;;;;;;;;;;;;;;;25.85;40.51;99732.02;2383349;74;50712;-75
2023/07/25 11:01:11;;;;;;;;;;;;;;;25.89;40.41;99720.66;2362200;74;51478;-74
2023/07/25 11:04:29;;;;;;;;;;;;;;;25.84;40.48;99717.33;2393152;74;51458;-76
2023/07/25 11:07:30;;;;;;;;;;;;;;;25.83;40.50;99723.29;2335076;74;52582;-75
2023/07/25 11:10:32;;;;;;;;;;;;;;;25.85;40.48;99711.70;2395293;74;51524;-76
2023/07/25 11:13:34;;;;;;;;;;;;;;;25.84;40.49;99724.09;2395131;74;51429;-75
2023/07/25 11:16:36;;;;;;;;;;;;;;;25.86;40.44;99715.22;2390763;74;50729;-76
2023/07/25 11:19:37;;;;;;;;;;;;;;;25.85;40.40;99714.41;2395254;73;50669;-76
2023/07/25 11:22:39;;;;;;;;;;;;;;;25.86;40.38;99707.09;2361979;74;51347;-77
2023/07/25 11:25:41;;;;;;;;;;;;;;;25.84;40.43;99702.42;2395190;74;51644;-76
2023/07/25 11:28:42;;;;;;;;;;;;;;;25.83;40.42;99702.96;2361742;74;50668;-77
2023/07/25 11:31:47;;;;;;;;;;;;;;;25.83;40.44;99700.25;2395484;73;50796;-75
2023/07/25 11:34:49;;;;;;;;;;;;;;;25.81;40.47;99697.52;2395575;74;51490;-75
2023/07/25 11:37:53;;;;;;;;;;;;;;;25.79;40.49;99693.72;2395310;74;50451;-75
2023/07/25 11:40:55;;;;;;;;;;;;;;;25.80;40.48;99689.93;2394367;74;51481;-76
2023/07/25 11:43:56;;;;;;;;;;;;;;;25.81;40.47;99694.27;2389610;73;50932;-76
2023/07/25 11:46:59;;;;;;;;;;;;;;;25.79;40.45;99693.72;2396301;73;50777;-76
2023/07/25 11:50:00;;;;;;;;;;;;;;;25.81;40.46;99695.62;2395787;74;50854;-77
2023/07/25 11:53:02;;;;;;;;;;;;;;;25.80;40.42;99689.93;2395619;74;50666;-77
2023/07/25 11:56:04;;;;;;;;;;;;;;;25.82;40.41;99688.33;2389494;74;52332;-74
2023/07/25 11:59:05;;;;;;;;;;;;;;;25.82;40.36;99687.79;2361547;74;50793;-76
2023/07/25 12:02:07;;;;;;;;;;;;;;;25.79;40.41;99692.37;2395140;73;51477;-76
2023/07/25 12:05:10;;;;;;;;;;;;;;;25.80;40.38;99685.86;2362015;74;51523;-75
2023/07/25 12:08:11;;;;;;;;;;;;;;;25.82;40.35;99682.91;2388860;74;51815;-76
2023/07/25 12:11:14;;;;;;;;;;;;;;;25.84;40.32;99666.71;2389186;74;51218;-75
2023/07/25 12:14:15;;;;;;;;;;;;;;;25.84;40.31;99669.90;2395343;74;51517;-76
2023/07/25 12:17:18;;;;;;;;;;;;;;;25.86;40.23;99665.08;2396249;74;51629;-76
2023/07/25 12:20:20;;;;;;;;;;;;;;;25.87;40.22;99661.83;2389519;74;51844;-77
2023/07/25 12:23:28;;;;;;;;;;;;;;;25.87;40.20;99666.73;2362515;74;50169;-76
2023/07/25 12:26:30;;;;;;;;;;;;;;;25.85;40.25;99657.49;2395349;74;51520;-75
2023/07/25 12:29:32;;;;;;;;;;;;;;;25.85;40.25;99664.81;2362353;74;50528;-76
2023/07/25 12:32:33;;;;;;;;;;;;;;;25.84;40.23;99669.42;2389604;74;50163;-75
2023/07/25 12:35:35;;;;;;;;;;;;;;;25.85;40.26;99676.46;2362340;74;50319;-76
2023/07/25 12:38:37;;;;;;;;;;;;;;;25.85;40.21;99671.05;2395465;74;50691;-75
2023/07/25 12:41:39;;;;;;;;;;;;;;;25.84;40.23;99665.35;2395661;74;50322;-76
2023/07/25 12:44:41;;;;;;;;;;;;;;;25.83;40.20;99659.60;2390385;74;53222;-75
2023/07/25 12:47:42;;;;;;;;;;;;;;;25.87;40.18;99661.83;2363167;74;51527;-75
2023/07/25 12:50:44;;;;;;;;;;;;;;;25.88;40.08;99651.28;2362748;74;51562;-75
2023/07/25 12:53:46;;;;;;;;;;;;;;;25.88;40.00;99656.70;2396260;74;50657;-75
2023/07/25 12:56:49;;;;;;;;;;;;;;;25.84;40.04;99646.38;2336715;74;51147;-77
2023/07/25 12:59:51;;;;;;;;;;;;;;;25.83;40.03;99652.83;2364366;74;22148;-75
2023/07/25 13:02:52;;;;;;;;;;;;;;;25.80;39.97;99662.83;2396632;74;52662;-76
2023/07/25 13:05:54;;;;;;;;;;;;;;;25.80;39.98;99649.82;2396475;74;51573;-76
2023/07/25 13:08:56;;;;;;;;;;;;;;;25.79;39.96;99653.59;2390574;74;52652;-76
2023/07/25 13:11:57;;;;;;;;;;;;;;;25.79;39.97;99654.43;2396405;73;50755;-75
2023/07/25 13:14:59;;;;;;;;;;;;;;;25.80;39.95;99655.24;2388439;74;50913;-76
2023/07/25 13:18:00;;;;;;;;;;;;;;;25.76;40.01;99659.52;2396040;73;50005;-75
2023/07/25 13:21:02;;;;;;;;;;;;;;;25.76;40.04;99667.11;2335475;74;52469;-76
2023/07/25 13:24:04;;;;;;;;;;;;;;;25.75;40.06;99670.09;2395646;74;50405;-77
2023/07/25 13:27:05;;;;;;;;;;;;;;;25.73;40.12;99670.33;2362336;74;50763;-75
2023/07/25 13:30:07;;;;;;;;;;;;;;;25.75;40.07;99670.91;2396108;74;50280;-75
2023/07/25 13:33:09;;;;;;;;;;;;;;;25.76;40.07;99670.36;2335953;74;51113;-74
2023/07/25 13:36:10;;;;;;;;;;;;;;;25.76;40.05;99672.53;2362309;74;50653;-74
2023/07/25 13:39:12;;;;;;;;;;;;;;;25.73;40.09;99670.88;2362098;74;50653;-76
2023/07/25 13:42:14;;;;;;;;;;;;;;;25.72;40.12;99668.71;2395680;74;51468;-75
2023/07/25 13:45:15;;;;;;;;;;;;;;;25.73;40.10;99669.52;2390499;74;52458;-75
2023/07/25 13:48:17;;;;;;;;;;;;;;;25.69;40.20;99669.22;2355720;74;51510;-77
2023/07/25 13:51:18;;;;;;;;;;;;;;;25.71;40.16;99675.18;2362878;74;51447;-75
2023/07/25 13:54:20;;;;;;;;;;;;;;;25.72;40.14;99666.00;2395619;74;51505;-76
2023/07/25 13:57:22;;;;;;;;;;;;;;;25.73;40.12;99664.91;2389548;74;50999;-76
2023/07/25 14:00:23;;;;;;;;;;;;;;;25.76;40.08;99668.47;2362234;74;51550;-76
2023/07/25 14:03:25;;;;;;;;;;;;;;;25.75;40.09;99671.45;2362315;74;50415;-75
2023/07/25 14:06:26;;;;;;;;;;;;;;;25.77;40.06;99664.70;2395385;74;50467;-75
2023/07/25 14:09:29;;;;;;;;;;;;;;;25.80;40.00;99662.83;2335273;74;51231;-75
2023/07/25 14:12:30;;;;;;;;;;;;;;;25.81;39.98;99667.70;2395257;74;51565;-74
2023/07/25 14:15:32;;;;;;;;;;;;;;;25.81;39.96;99661.74;2395470;74;51457;-74
2023/07/25 14:18:34;;;;;;;;;;;;;;;25.79;39.97;99662.56;2387902;73;50694;-74
2023/07/25 14:21:35;;;;;;;;;;;;;;;25.78;39.95;99659.55;2362675;74;50692;-75
2023/07/25 14:24:37;;;;;;;;;;;;;;;25.82;39.86;99651.75;2395292;74;50667;-75
2023/07/25 14:27:39;;;;;;;;;;;;;;;25.82;39.85;99651.20;2361508;74;51485;-75
2023/07/25 14:30:40;;;;;;;;;;;;;;;25.82;39.86;99652.56;2361924;74;50724;-75
2023/07/25 14:33:42;;;;;;;;;;;;;;;25.82;39.85;99651.75;2395314;73;51419;-77
2023/07/25 14:36:43;;;;;;;;;;;;;;;25.82;39.84;99653.91;2362376;74;51755;-76
2023/07/25 14:39:45;;;;;;;;;;;;;;;25.82;39.87;99657.98;2395475;74;51522;-77
2023/07/25 14:42:47;;;;;;;;;;;;;;;25.80;39.90;99645.76;2362226;74;51511;-73
2023/07/25 14:45:48;;;;;;;;;;;;;;;25.79;39.95;99646.81;2389457;74;50126;-76
2023/07/25 14:48:50;;;;;;;;;;;;;;;25.77;39.98;99649.80;2395832;73;52174;-76
2023/07/25 14:51:51;;;;;;;;;;;;;;;25.74;40.04;99662.50;2397854;73;51436;-76
2023/07/25 14:54:53;;;;;;;;;;;;;;;25.73;40.05;99654.08;2397865;73;51516;-76
2023/07/25 14:57:54;;;;;;;;;;;;;;;25.73;40.05;99656.78;2362732;74;50353;-76
2023/07/25 15:00:56;;;;;;;;;;;;;;;25.72;40.04;99653.00;2363360;73;50433;-76
2023/07/25 15:03:58;;;;;;;;;;;;;;;25.73;40.02;99656.78;2398660;74;50288;-76
2023/07/25 15:06:59;;;;;;;;;;;;;;;25.72;40.02;99655.16;2398331;73;50658;-75
2023/07/25 15:10:01;;;;;;;;;;;;;;;25.74;40.04;99661.66;2336708;74;52491;-76
2023/07/25 15:13:02;;;;;;;;;;;;;;;25.73;40.05;99654.08;2362622;73;51503;-75
2023/07/25 15:16:04;;;;;;;;;;;;;;;25.72;40.05;99657.06;2391065;73;51708;-76
2023/07/25 15:19:07;;;;;;;;;;;;;;;25.75;39.99;99657.36;2360816;74;50454;-75
2023/07/25 15:22:09;;;;;;;;;;;;;;;25.75;39.95;99654.64;2362368;74;50792;-77
2023/07/25 15:25:11;;;;;;;;;;;;;;;25.72;39.98;99657.87;2361901;74;50310;-76
2023/07/25 15:28:12;;;;;;;;;;;;;;;25.75;39.95;99649.23;2395020;74;50723;-76
2023/07/25 15:31:14;;;;;;;;;;;;;;;25.76;39.89;99660.33;2395133;73;50271;-76
2023/07/25 15:34:15;;;;;;;;;;;;;;;25.76;39.88;99652.20;2389236;73;51722;-76
2023/07/25 15:37:17;;;;;;;;;;;;;;;25.76;39.88;99648.69;2361764;74;50887;-75
2023/07/25 15:40:18;;;;;;;;;;;;;;;25.76;39.86;99648.69;2362189;74;50764;-75
2023/07/25 15:43:20;;;;;;;;;;;;;;;25.77;39.85;99636.79;2362526;74;51490;-76
2023/07/25 15:46:22;;;;;;;;;;;;;;;25.78;39.80;99650.61;2390127;74;51715;-76
2023/07/25 15:49:23;;;;;;;;;;;;;;;25.79;39.74;99654.43;2361964;74;51583;-75